Aerbrava en el facebook Aerbrava en el twitter Aerbrava Google+ Aerbrava instagram Aerbrava en el youtube Aerbrava tumblr Aerbrava flikr Aerbrava pinterest
Aerbrava in English aerbrava en Español
Escola de Pilots
Telèfon 972234126 972 23 41 26
 
Aerbrava in English aerbrava en Español
Aerbrava - meteorologia

Informació meteorològica aeronàutica

 

En aquest apartat apareix la informació meteorològica aeronàutica que és utilitzada a les pràctiques dels alumnes de l’Escola de Pilots del nostre centre durant la seva formació, pel que pot no ser actual i s’hauria d’utilitzar pel seu propi compte i risc. AERBRAVA no es fa responsable del seu ús.

 

TEMPS ACTUAL

Satèl·lit Meteorològic

sat24.com

Servei Meteorològic de Catalunya

 

LEGE 230600Z 05003KT 020V080 7000 2000N VCFG FEW002 09/09 Q1025
LEGE 230530Z VRB01KT 5000 BR FEW002 09/09 Q1025
LEGE 230500Z VRB02KT 5000 BR FEW002 09/09 Q1024
LEGE 230430Z 26003KT 210V290 5000 BR FEW002 10/10 Q1024
LEGE 230400Z 34002KT 5000 BR FEW001 11/11 Q1024
LEGE 230330Z 02006KT 340V040 2500 BCFG FEW001 11/11 Q1024
LEGE 230300Z 03004KT 2500 1000N BCFG SCT001 10/10 Q1024
LEGE 230230Z 04001KT 2500 BCFG FEW001 09/09 Q1024
TAF LEGE 230500Z 2306/2406 VRB03KT 9999 FEW030 TX23/2313Z TN09/2306Z   PROB40   TEMPO 2306/2308 2000 BR   TEMPO 2312/2317 05008KT   PROB30   TEMPO 2311/2318 18007KT

Aviation Weather

 
Aerbrava en el facebook Aerbrava en el twitter Aerbrava Google+ Aerbrava instagram Aerbrava en el youtube Aerbrava tumblr Aerbrava flikr Aerbrava pinterest

¡CSS Vàlid!